createdAt,value
2018-07-02T00:00:20.927Z,19.90
2018-07-02T00:02:50.106Z,19.90
2018-07-02T00:05:19.311Z,19.80
2018-07-02T00:07:48.507Z,19.80
2018-07-02T00:10:17.676Z,19.70
2018-07-02T00:12:46.835Z,19.70
2018-07-02T00:15:16.572Z,19.60
2018-07-02T00:17:45.763Z,19.60
2018-07-02T00:20:14.958Z,19.60
2018-07-02T00:22:44.152Z,19.50
2018-07-02T00:25:13.372Z,19.50
2018-07-02T00:27:42.595Z,19.40
2018-07-02T00:30:11.795Z,19.40
2018-07-02T00:32:41.119Z,19.40
2018-07-02T00:35:10.299Z,19.40
2018-07-02T00:37:40.164Z,19.30
2018-07-02T00:40:09.999Z,19.30
2018-07-02T00:42:39.181Z,19.20
2018-07-02T00:45:08.444Z,19.20
2018-07-02T00:47:37.608Z,19.20
2018-07-02T00:50:06.879Z,19.20
2018-07-02T00:52:36.168Z,19.10
2018-07-02T00:55:05.551Z,19.00
2018-07-02T00:57:34.730Z,19.00
2018-07-02T01:00:10.735Z,18.90
2018-07-02T01:02:39.895Z,18.80
2018-07-02T01:05:09.091Z,18.80
2018-07-02T01:07:38.391Z,18.80
2018-07-02T01:10:07.661Z,18.80
2018-07-02T01:12:36.845Z,18.70
2018-07-02T01:15:06.357Z,18.70
2018-07-02T01:17:35.546Z,18.60
2018-07-02T01:20:04.880Z,18.50
2018-07-02T01:22:34.458Z,18.50
2018-07-02T01:25:03.715Z,18.50
2018-07-02T01:27:34.983Z,18.40
2018-07-02T01:30:05.460Z,18.40
2018-07-02T01:32:34.631Z,18.40
2018-07-02T01:35:03.966Z,18.40
2018-07-02T01:37:33.159Z,18.30
2018-07-02T01:40:02.379Z,18.30
2018-07-02T01:42:32.527Z,18.20
2018-07-02T01:45:01.688Z,18.20
2018-07-02T01:47:30.850Z,18.10
2018-07-02T01:50:00.064Z,18.10
2018-07-02T01:52:29.225Z,18.10
2018-07-02T01:54:58.391Z,18.00
2018-07-02T01:57:27.576Z,18.00
2018-07-02T01:59:56.758Z,17.90
2018-07-02T02:02:25.938Z,17.90
2018-07-02T02:04:55.462Z,17.90
2018-07-02T02:07:26.809Z,17.80
2018-07-02T02:09:55.990Z,17.80
2018-07-02T02:12:25.148Z,17.70
2018-07-02T02:14:54.323Z,17.70
2018-07-02T02:17:23.515Z,17.70
2018-07-02T02:19:52.687Z,17.70
2018-07-02T02:22:21.864Z,17.60
2018-07-02T02:24:51.558Z,17.60
2018-07-02T02:27:20.739Z,17.60
2018-07-02T02:29:49.922Z,17.50
2018-07-02T02:32:19.141Z,17.40
2018-07-02T02:34:48.371Z,17.40
2018-07-02T02:37:17.615Z,17.40
2018-07-02T02:39:46.835Z,17.40
2018-07-02T02:42:16.056Z,17.30
2018-07-02T02:44:45.750Z,17.30
2018-07-02T02:47:15.053Z,17.20
2018-07-02T02:49:44.317Z,17.20
2018-07-02T02:52:13.487Z,17.10
2018-07-02T02:54:42.714Z,17.10
2018-07-02T02:57:12.062Z,17.00
2018-07-02T02:59:41.215Z,17.00
2018-07-02T03:02:10.459Z,17.00
2018-07-02T03:04:39.642Z,16.90
2018-07-02T03:07:09.032Z,16.90
2018-07-02T03:09:38.837Z,16.90
2018-07-02T03:12:08.027Z,16.90
2018-07-02T03:14:37.182Z,16.80
2018-07-02T03:17:06.540Z,16.80
2018-07-02T03:22:04.867Z,16.70
2018-07-02T03:24:34.231Z,16.70
2018-07-02T03:27:03.411Z,16.70
2018-07-02T03:29:32.577Z,16.60
2018-07-02T03:32:02.744Z,16.60
2018-07-02T03:34:31.944Z,16.60
2018-07-02T03:39:29.892Z,16.60
2018-07-02T03:41:59.075Z,16.60
2018-07-02T03:44:28.326Z,16.60
2018-07-02T03:46:58.019Z,16.60
2018-07-02T03:49:27.211Z,16.50
2018-07-02T03:51:56.710Z,16.50
2018-07-02T03:54:26.263Z,16.50
2018-07-02T03:56:55.439Z,16.40
2018-07-02T03:59:24.667Z,16.40
2018-07-02T04:01:54.024Z,16.50
2018-07-02T04:04:23.239Z,16.50
2018-07-02T04:06:52.443Z,16.50
2018-07-02T04:09:21.627Z,16.50
2018-07-02T04:11:50.808Z,16.50
2018-07-02T04:14:19.980Z,16.60
2018-07-02T04:16:49.799Z,16.60
2018-07-02T04:19:18.963Z,16.60
2018-07-02T04:21:48.343Z,16.60
2018-07-02T04:24:17.558Z,16.50
2018-07-02T04:26:46.698Z,16.50
2018-07-02T04:29:15.864Z,16.60
2018-07-02T04:31:45.095Z,16.60
2018-07-02T04:34:14.344Z,16.60
2018-07-02T04:36:43.639Z,16.60
2018-07-02T04:39:13.486Z,16.60
2018-07-02T04:41:42.667Z,16.60
2018-07-02T04:44:11.835Z,16.70
2018-07-02T04:46:41.071Z,16.70
2018-07-02T04:49:10.595Z,16.80
2018-07-02T04:51:39.755Z,16.70
2018-07-02T04:54:08.968Z,16.80
2018-07-02T04:56:38.306Z,16.80
2018-07-02T04:59:07.479Z,16.80
2018-07-02T05:01:36.890Z,16.90
2018-07-02T05:04:06.342Z,16.90
2018-07-02T05:06:35.576Z,16.90
2018-07-02T05:09:07.356Z,17.00
2018-07-02T05:11:36.739Z,17.00
2018-07-02T05:14:05.898Z,17.00
2018-07-02T05:16:35.108Z,17.00
2018-07-02T05:19:04.860Z,17.00
2018-07-02T05:21:34.239Z,17.10
2018-07-02T05:24:03.790Z,17.10
2018-07-02T05:26:32.949Z,17.10
2018-07-02T05:31:30.960Z,17.20
2018-07-02T05:34:00.107Z,17.20
2018-07-02T05:36:30.013Z,17.20
2018-07-02T05:38:59.245Z,17.30
2018-07-02T05:41:28.456Z,17.30
2018-07-02T05:43:57.643Z,17.30
2018-07-02T05:46:27.388Z,17.40
2018-07-02T05:48:56.591Z,17.40
2018-07-02T05:51:26.362Z,17.50
2018-07-02T05:53:55.543Z,17.50
2018-07-02T05:56:24.715Z,17.50
2018-07-02T05:58:55.202Z,17.60
2018-07-02T06:01:24.464Z,17.70
2018-07-02T06:03:53.658Z,17.70
2018-07-02T06:08:52.264Z,17.70
2018-07-02T06:11:21.436Z,17.80
2018-07-02T06:13:50.617Z,17.90
2018-07-02T06:16:19.879Z,17.90
2018-07-02T06:18:49.084Z,18.00
2018-07-02T06:21:18.260Z,18.00
2018-07-02T06:23:47.429Z,18.10
2018-07-02T06:26:16.643Z,18.10
2018-07-02T06:28:45.914Z,18.10
2018-07-02T06:31:15.391Z,18.10
2018-07-02T06:33:44.601Z,18.20
2018-07-02T06:36:13.768Z,18.20
2018-07-02T06:38:43.007Z,18.30
2018-07-02T06:41:12.174Z,18.30
2018-07-02T06:43:41.359Z,18.30
2018-07-02T06:46:11.630Z,18.40
2018-07-02T06:48:40.795Z,18.50
2018-07-02T06:51:10.151Z,18.50
2018-07-02T06:53:39.876Z,18.50
2018-07-02T06:56:09.099Z,18.60
2018-07-02T06:58:38.315Z,18.60
2018-07-02T07:01:07.483Z,18.70
2018-07-02T07:03:36.903Z,18.70
2018-07-02T07:06:06.092Z,18.90
2018-07-02T07:08:35.422Z,18.90
2018-07-02T07:11:04.879Z,18.90
2018-07-02T07:13:34.068Z,19.00
2018-07-02T07:16:03.459Z,19.00
2018-07-02T07:18:33.043Z,19.10
2018-07-02T07:21:02.242Z,19.20
2018-07-02T07:23:31.483Z,19.20
2018-07-02T07:26:00.796Z,19.30
2018-07-02T07:28:29.991Z,19.30
2018-07-02T07:30:59.296Z,19.40
2018-07-02T07:33:28.467Z,19.50
2018-07-02T07:35:57.715Z,19.50
2018-07-02T07:38:27.159Z,19.60
2018-07-02T07:40:56.419Z,19.60
2018-07-02T07:43:25.598Z,19.60
2018-07-02T07:45:54.817Z,19.70
2018-07-02T07:48:24.019Z,19.70
2018-07-02T07:50:53.179Z,19.70
2018-07-02T07:53:22.411Z,19.80
2018-07-02T07:55:51.989Z,19.90
2018-07-02T07:58:22.259Z,20.00
2018-07-02T08:00:51.899Z,20.00
2018-07-02T08:03:21.391Z,20.00
2018-07-02T08:05:50.584Z,20.00
2018-07-02T08:08:19.777Z,20.00
2018-07-02T08:10:49.092Z,20.10
2018-07-02T08:13:18.262Z,20.10
2018-07-02T08:15:47.479Z,20.20
2018-07-02T08:18:16.639Z,20.20
2018-07-02T08:20:45.811Z,20.30
2018-07-02T08:23:15.586Z,20.30
2018-07-02T08:25:44.799Z,20.30
2018-07-02T08:28:14.008Z,20.50
2018-07-02T08:30:43.179Z,20.60
2018-07-02T08:33:12.379Z,20.70
2018-07-02T08:35:41.782Z,20.70
2018-07-02T08:38:10.947Z,20.60
2018-07-02T08:40:40.182Z,20.60
2018-07-02T08:43:09.447Z,20.80
2018-07-02T08:45:38.871Z,20.90
2018-07-02T08:48:08.068Z,21.00
2018-07-02T08:50:37.266Z,21.00
2018-07-02T08:53:06.473Z,21.00
2018-07-02T08:55:35.707Z,21.10
2018-07-02T08:58:05.619Z,21.10
2018-07-02T09:00:34.839Z,21.10
2018-07-02T09:03:04.047Z,21.10
2018-07-02T09:05:33.554Z,21.20
2018-07-02T09:08:03.198Z,21.20
2018-07-02T09:10:32.363Z,21.20
2018-07-02T09:13:01.563Z,21.20
2018-07-02T09:15:30.817Z,21.20
2018-07-02T09:18:00.064Z,21.30
2018-07-02T09:20:29.232Z,21.40
2018-07-02T09:22:58.430Z,21.50
2018-07-02T09:25:27.607Z,21.70
2018-07-02T09:27:56.762Z,21.80
2018-07-02T09:30:26.147Z,21.80
2018-07-02T09:32:55.347Z,21.80
2018-07-02T09:35:24.512Z,21.90
2018-07-02T09:37:53.762Z,21.90
2018-07-02T09:40:22.979Z,21.90
2018-07-02T09:42:52.214Z,22.00
2018-07-02T09:45:21.423Z,22.00
2018-07-02T09:47:50.735Z,22.10
2018-07-02T09:52:49.364Z,22.30
2018-07-02T09:55:18.558Z,22.20
2018-07-02T09:57:47.717Z,22.20
2018-07-02T10:00:17.203Z,22.10
2018-07-02T10:02:46.395Z,22.20
2018-07-02T10:05:15.559Z,22.20
2018-07-02T10:07:44.843Z,22.30
2018-07-02T10:10:14.052Z,22.40
2018-07-02T10:12:43.240Z,22.40
2018-07-02T10:15:12.481Z,22.40
2018-07-02T10:17:41.738Z,22.30
2018-07-02T10:20:10.955Z,22.30
2018-07-02T10:22:40.169Z,22.40
2018-07-02T10:25:09.660Z,22.40
2018-07-02T10:27:38.873Z,22.60
2018-07-02T10:30:08.126Z,22.70
2018-07-02T10:32:37.305Z,22.80
2018-07-02T10:35:06.494Z,22.80
2018-07-02T10:37:36.258Z,22.80
2018-07-02T10:40:05.519Z,23.00
2018-07-02T10:42:34.725Z,23.00
2018-07-02T10:47:32.780Z,23.10
2018-07-02T10:50:02.025Z,23.10
2018-07-02T10:52:31.240Z,23.30
2018-07-02T10:55:00.423Z,23.30
2018-07-02T10:57:29.621Z,23.30
2018-07-02T10:59:59.101Z,23.20
2018-07-02T11:02:28.687Z,23.20
2018-07-02T11:04:57.859Z,23.10
2018-07-02T11:07:27.076Z,23.20
2018-07-02T11:09:56.304Z,23.40
2018-07-02T11:12:25.468Z,23.50
2018-07-02T11:14:54.816Z,23.60
2018-07-02T11:17:23.987Z,23.70
2018-07-02T11:19:53.156Z,23.90
2018-07-02T11:22:22.703Z,24.10
2018-07-02T11:24:51.851Z,24.50
2018-07-02T11:27:21.013Z,24.90
2018-07-02T11:29:50.194Z,25.70
2018-07-02T11:32:19.400Z,27.30
2018-07-02T11:34:48.594Z,29.00
2018-07-02T11:37:17.827Z,30.20
2018-07-02T11:39:47.027Z,31.30
2018-07-02T11:42:16.463Z,32.10
2018-07-02T11:44:46.355Z,33.10
2018-07-02T11:47:15.523Z,34.00
2018-07-02T11:49:44.930Z,34.10
2018-07-02T11:52:14.135Z,34.30
2018-07-02T11:54:43.315Z,35.00
2018-07-02T11:57:12.519Z,35.50
2018-07-02T11:59:41.683Z,36.10
2018-07-02T12:02:10.856Z,36.30
2018-07-02T12:04:40.513Z,36.70
2018-07-02T12:07:10.371Z,37.50
2018-07-02T12:09:39.543Z,38.10
2018-07-02T12:12:08.737Z,38.50
2018-07-02T12:14:38.001Z,39.00
2018-07-02T12:17:07.163Z,39.30
2018-07-02T12:19:36.348Z,39.30
2018-07-02T12:22:05.550Z,39.40
2018-07-02T12:24:35.297Z,39.50
2018-07-02T12:27:04.644Z,39.70
2018-07-02T12:29:34.083Z,40.10
2018-07-02T12:32:03.238Z,40.50
2018-07-02T12:34:32.423Z,40.60
2018-07-02T12:37:01.655Z,40.60
2018-07-02T12:39:30.830Z,40.60
2018-07-02T12:42:00.008Z,41.00
2018-07-02T12:44:29.997Z,41.30
2018-07-02T12:46:59.241Z,41.50
2018-07-02T12:49:28.424Z,41.70
2018-07-02T12:51:58.104Z,41.90
2018-07-02T12:54:27.319Z,42.10
2018-07-02T12:56:56.475Z,42.30
2018-07-02T12:59:25.687Z,42.50
2018-07-02T13:01:54.875Z,43.00
2018-07-02T13:04:24.043Z,43.10
2018-07-02T13:06:53.756Z,43.40
2018-07-02T13:09:22.937Z,43.50
2018-07-02T13:11:52.219Z,43.80
2018-07-02T13:14:21.471Z,44.00
2018-07-02T13:16:50.699Z,44.30
2018-07-02T13:19:19.871Z,44.50
2018-07-02T13:21:49.699Z,44.60
2018-07-02T13:24:18.885Z,45.00
2018-07-02T13:26:48.104Z,45.10
2018-07-02T13:29:17.473Z,45.20
2018-07-02T13:31:46.663Z,45.00
2018-07-02T13:34:15.855Z,44.70
2018-07-02T13:36:45.619Z,45.20
2018-07-02T13:39:15.191Z,45.60
2018-07-02T13:41:44.704Z,46.00
2018-07-02T13:46:42.787Z,46.20
2018-07-02T13:49:12.104Z,46.30
2018-07-02T13:51:41.364Z,46.50
2018-07-02T13:54:10.583Z,46.70
2018-07-02T13:59:09.230Z,46.60
2018-07-02T14:01:38.383Z,46.60
2018-07-02T14:04:07.564Z,46.40
2018-07-02T14:06:37.084Z,46.50
2018-07-02T14:11:36.846Z,47.30
2018-07-02T14:14:06.067Z,47.40
2018-07-02T14:16:35.239Z,47.50
2018-07-02T14:19:04.698Z,47.50
2018-07-02T14:21:34.550Z,47.60
2018-07-02T14:24:03.759Z,47.80
2018-07-02T14:26:32.983Z,47.90
2018-07-02T14:29:09.462Z,48.20
2018-07-02T14:31:38.664Z,48.20
2018-07-02T14:34:08.483Z,48.40
2018-07-02T14:36:38.265Z,48.60
2018-07-02T14:39:10.030Z,48.70
2018-07-02T14:41:39.206Z,48.90
2018-07-02T14:44:08.462Z,48.80
2018-07-02T14:46:38.235Z,48.80
2018-07-02T14:49:12.811Z,48.80
2018-07-02T14:51:42.299Z,48.90
2018-07-02T14:54:11.592Z,48.70
2018-07-02T14:56:41.103Z,48.30
2018-07-02T14:59:10.337Z,48.30
2018-07-02T15:01:39.603Z,48.80
2018-07-02T15:04:08.838Z,49.00
2018-07-02T15:06:38.402Z,49.00
2018-07-02T15:09:11.491Z,48.50
2018-07-02T15:11:41.028Z,48.70
2018-07-02T15:14:10.219Z,48.80
2018-07-02T15:16:39.968Z,48.90
2018-07-02T15:19:09.177Z,49.00
2018-07-02T15:21:38.327Z,48.90
2018-07-02T15:24:07.703Z,48.50
2018-07-02T15:26:36.873Z,48.70
2018-07-02T15:29:06.289Z,48.90
2018-07-02T15:31:35.426Z,49.00
2018-07-02T15:36:33.370Z,49.20
2018-07-02T15:39:02.799Z,49.20
2018-07-02T15:41:32.041Z,49.00
2018-07-02T15:44:01.691Z,49.10
2018-07-02T15:46:31.071Z,49.00
2018-07-02T15:49:00.355Z,48.90
2018-07-02T15:51:29.579Z,48.90
2018-07-02T15:54:00.199Z,48.90
2018-07-02T15:56:29.383Z,48.80
2018-07-02T15:58:58.816Z,48.80
2018-07-02T16:01:28.208Z,48.80
2018-07-02T16:03:57.655Z,48.60
2018-07-02T16:06:26.818Z,48.40
2018-07-02T16:08:56.995Z,48.40
2018-07-02T16:11:26.422Z,48.20
2018-07-02T16:13:55.609Z,48.40
2018-07-02T16:16:25.019Z,47.80
2018-07-02T16:18:54.183Z,47.40
2018-07-02T16:21:23.368Z,47.60
2018-07-02T16:23:52.589Z,47.90
2018-07-02T16:26:21.776Z,48.00
2018-07-02T16:28:51.099Z,48.20
2018-07-02T16:31:20.295Z,48.10
2018-07-02T16:33:49.743Z,48.00
2018-07-02T16:36:18.907Z,47.80
2018-07-02T16:38:48.087Z,47.50
2018-07-02T16:41:17.306Z,47.10
2018-07-02T16:43:46.792Z,46.70
2018-07-02T16:46:16.318Z,46.60
2018-07-02T16:48:45.471Z,46.80
2018-07-02T16:51:18.688Z,46.90
2018-07-02T16:53:47.891Z,46.90
2018-07-02T16:56:17.060Z,46.80
2018-07-02T16:58:46.254Z,46.80
2018-07-02T17:01:15.536Z,46.60
2018-07-02T17:03:44.727Z,46.50
2018-07-02T17:06:14.173Z,46.40
2018-07-02T17:08:43.318Z,46.30
2018-07-02T17:11:13.158Z,46.30
2018-07-02T17:13:42.496Z,46.30
2018-07-02T17:16:11.696Z,46.10
2018-07-02T17:18:41.033Z,46.10
2018-07-02T17:21:10.355Z,45.90
2018-07-02T17:23:39.799Z,45.70
2018-07-02T17:28:38.139Z,45.60
2018-07-02T17:31:07.373Z,45.40
2018-07-02T17:33:36.598Z,45.10
2018-07-02T17:36:05.895Z,44.90
2018-07-02T17:38:35.082Z,44.70
2018-07-02T17:41:04.273Z,44.50
2018-07-02T17:43:33.520Z,44.40
2018-07-02T17:46:02.724Z,44.20
2018-07-02T17:48:31.911Z,43.90
2018-07-02T17:51:01.275Z,43.80
2018-07-02T17:53:30.442Z,43.60
2018-07-02T17:55:59.638Z,43.50
2018-07-02T17:58:28.843Z,43.40
2018-07-02T18:00:58.153Z,43.20
2018-07-02T18:03:27.335Z,43.00
2018-07-02T18:05:56.604Z,42.80
2018-07-02T18:08:25.808Z,42.60
2018-07-02T18:10:54.991Z,42.30
2018-07-02T18:13:25.228Z,42.00
2018-07-02T18:15:55.335Z,41.40
2018-07-02T18:18:24.491Z,40.30
2018-07-02T18:20:53.659Z,39.10
2018-07-02T18:23:22.815Z,38.10
2018-07-02T18:25:51.990Z,37.30
2018-07-02T18:30:49.992Z,36.00
2018-07-02T18:33:19.244Z,35.60
2018-07-02T18:35:48.925Z,35.10
2018-07-02T18:38:18.479Z,34.80
2018-07-02T18:40:47.731Z,34.50
2018-07-02T18:43:16.974Z,34.20
2018-07-02T18:45:46.141Z,33.90
2018-07-02T18:48:15.291Z,33.70
2018-07-02T18:50:44.809Z,33.50
2018-07-02T18:53:13.981Z,33.20
2018-07-02T18:55:43.141Z,33.00
2018-07-02T18:58:12.623Z,32.80
2018-07-02T19:00:41.795Z,32.60
2018-07-02T19:03:11.019Z,32.40
2018-07-02T19:05:40.259Z,32.10
2018-07-02T19:08:09.432Z,31.90
2018-07-02T19:10:38.623Z,31.70
2018-07-02T19:13:07.815Z,31.50
2018-07-02T19:15:37.251Z,31.30
2018-07-02T19:18:06.754Z,31.10
2018-07-02T19:20:36.361Z,30.90
2018-07-02T19:23:05.562Z,30.70
2018-07-02T19:25:34.759Z,30.40
2018-07-02T19:28:05.287Z,30.30
2018-07-02T19:30:34.468Z,30.10
2018-07-02T19:33:03.670Z,29.80
2018-07-02T19:35:33.186Z,29.70
2018-07-02T19:38:02.363Z,29.60
2018-07-02T19:40:31.562Z,29.50
2018-07-02T19:43:01.649Z,29.30
2018-07-02T19:45:30.936Z,29.20
2018-07-02T19:48:00.259Z,29.10
2018-07-02T19:50:29.463Z,28.90
2018-07-02T19:52:58.635Z,28.80
2018-07-02T19:55:28.151Z,28.70
2018-07-02T19:57:57.368Z,28.60
2018-07-02T20:00:26.617Z,28.60
2018-07-02T20:02:55.755Z,28.60
2018-07-02T20:05:25.297Z,28.60
2018-07-02T20:07:54.963Z,28.60
2018-07-02T20:10:24.320Z,28.60
2018-07-02T20:12:53.543Z,28.50
2018-07-02T20:15:22.689Z,28.40
2018-07-02T20:17:52.165Z,28.20
2018-07-02T20:20:21.331Z,28.10
2018-07-02T20:22:50.491Z,27.90
2018-07-02T20:25:19.691Z,27.70
2018-07-02T20:27:49.297Z,27.50
2018-07-02T20:30:18.467Z,27.40
2018-07-02T20:32:47.914Z,27.40
2018-07-02T20:35:17.174Z,27.20
2018-07-02T20:37:46.373Z,27.10
2018-07-02T20:40:15.570Z,27.10
2018-07-02T20:42:44.806Z,27.00
2018-07-02T20:47:42.656Z,26.80
2018-07-02T20:50:12.076Z,26.70
2018-07-02T20:52:41.319Z,26.60
2018-07-02T20:55:10.506Z,26.40
2018-07-02T20:57:39.736Z,26.30
2018-07-02T21:02:37.955Z,26.20
2018-07-02T21:05:07.246Z,26.00
2018-07-02T21:10:05.555Z,25.70
2018-07-02T21:12:35.168Z,25.50
2018-07-02T21:15:04.902Z,25.40
2018-07-02T21:17:34.163Z,25.40
2018-07-02T21:20:04.122Z,25.30
2018-07-02T21:22:33.582Z,25.20
2018-07-02T21:25:02.759Z,25.10
2018-07-02T21:27:32.280Z,25.00
2018-07-02T21:30:01.512Z,25.00
2018-07-02T21:32:30.707Z,24.90
2018-07-02T21:35:00.343Z,24.80
2018-07-02T21:37:29.543Z,24.80
2018-07-02T21:40:01.240Z,24.70
2018-07-02T21:42:30.487Z,24.60
2018-07-02T21:44:59.856Z,24.50
2018-07-02T21:47:29.058Z,24.40
2018-07-02T21:49:58.267Z,24.40
2018-07-02T21:52:27.523Z,24.40
2018-07-02T21:54:57.202Z,24.20
2018-07-02T21:57:26.602Z,24.10
2018-07-02T21:59:55.834Z,24.10
2018-07-02T22:04:54.227Z,24.10
2018-07-02T22:09:52.239Z,24.10
2018-07-02T22:12:21.399Z,24.00
2018-07-02T22:14:50.565Z,23.90
2018-07-02T22:17:20.064Z,23.90
2018-07-02T22:19:49.239Z,23.80
2018-07-02T22:22:22.101Z,23.60
2018-07-02T22:24:52.574Z,23.60
2018-07-02T22:27:22.332Z,23.60
2018-07-02T22:29:51.889Z,23.60
2018-07-02T22:32:21.039Z,23.60
2018-07-02T22:34:50.247Z,23.50
2018-07-02T22:37:19.794Z,23.50
2018-07-02T22:39:48.943Z,23.40
2018-07-02T22:42:18.132Z,23.20
2018-07-02T22:44:47.593Z,23.20
2018-07-02T22:47:16.764Z,23.10
2018-07-02T22:49:45.969Z,23.10
2018-07-02T22:52:15.164Z,23.00
2018-07-02T22:54:44.348Z,22.90
2018-07-02T22:57:13.519Z,22.80
2018-07-02T22:59:43.072Z,22.70
2018-07-02T23:02:12.267Z,22.60
2018-07-02T23:04:41.443Z,22.60
2018-07-02T23:09:39.395Z,22.50
2018-07-02T23:12:08.585Z,22.40
2018-07-02T23:14:37.775Z,22.40
2018-07-02T23:17:07.691Z,22.30
2018-07-02T23:19:36.916Z,22.20
2018-07-02T23:22:06.787Z,22.10
2018-07-02T23:24:36.509Z,22.10
2018-07-02T23:27:05.626Z,22.10
2018-07-02T23:29:34.800Z,22.00
2018-07-02T23:32:04.031Z,22.00
2018-07-02T23:34:33.192Z,21.90
2018-07-02T23:37:02.426Z,21.80
2018-07-02T23:39:31.632Z,21.70
2018-07-02T23:42:00.855Z,21.70
2018-07-02T23:49:27.827Z,21.50
2018-07-02T23:51:57.100Z,21.40
2018-07-02T23:54:26.320Z,21.40
2018-07-02T23:56:55.563Z,21.30
2018-07-02T23:59:24.826Z,21.30
